Victor, South Dakota
Current Conditions -  °F | °C
As of 4:16 PM on Thursday 18 Dec 2014 (Local Time) from KETH Reporting Station
Overcast Overcast  
Wind Chill:   Ceiling: 4100
Heat Index: 18°   Visibility: 10mi
Dew Point: 14°   Wind: 12mph
Humidity: 86%   Direction: 130°SE
Pressure: 30.22"   Gusts: NA
Location:  45.8782°N, 96.7131°W
Report Text: KETH 182216Z AUTO 13010KT 10SM BKN041 OVC060 M08/M10 A3022 RMK AO2
Loading
Personal Weather Stations






























Interactive Weather Map New forecast layout! Learn more

10-Day Weather Forecast

Advertisements
Track Severe Weather on mobile